sensor_id;sensor_type;location;lat;lon;timestamp;pressure;altitude;pressure_sealevel;temperature;humidity
49979;BME280;35869;50.990;6.962;2023-11-22T00:03:51;102259.47;;;6.70;100.00
49979;BME280;35869;50.990;6.962;2023-11-22T00:08:52;102257.75;;;6.59;100.00
49979;BME280;35869;50.990;6.962;2023-11-22T00:13:52;102267.25;;;6.59;100.00
49979;BME280;35869;50.990;6.962;2023-11-22T00:18:52;102256.91;;;6.63;100.00
49979;BME280;35869;50.990;6.962;2023-11-22T00:23:53;102255.16;;;6.62;100.00
49979;BME280;35869;50.990;6.962;2023-11-22T00:28:53;102256.03;;;6.60;100.00
49979;BME280;35869;50.990;6.962;2023-11-22T00:33:53;102254.31;;;6.59;100.00
49979;BME280;35869;50.990;6.962;2023-11-22T00:38:53;102253.53;;;6.31;100.00
49979;BME280;35869;50.990;6.962;2023-11-22T00:43:53;102263.81;;;6.48;100.00
49979;BME280;35869;50.990;6.962;2023-11-22T00:48:54;102267.28;;;6.51;100.00
49979;BME280;35869;50.990;6.962;2023-11-22T00:53:54;102275.00;;;6.48;100.00
49979;BME280;35869;50.990;6.962;2023-11-22T00:58:54;102264.66;;;6.50;100.00
49979;BME280;35869;50.990;6.962;2023-11-22T01:03:54;102260.38;;;6.50;100.00
49979;BME280;35869;50.990;6.962;2023-11-22T01:08:55;102271.56;;;6.45;100.00
49979;BME280;35869;50.990;6.962;2023-11-22T01:13:55;102269.88;;;6.36;100.00
49979;BME280;35869;50.990;6.962;2023-11-22T01:18:55;102276.75;;;6.38;100.00
49979;BME280;35869;50.990;6.962;2023-11-22T01:23:55;102290.53;;;6.45;100.00
49979;BME280;35869;50.990;6.962;2023-11-22T01:28:56;102287.09;;;6.35;100.00
49979;BME280;35869;50.990;6.962;2023-11-22T01:33:56;102291.38;;;6.46;100.00
49979;BME280;35869;50.990;6.962;2023-11-22T01:38:56;102295.69;;;6.44;100.00
49979;BME280;35869;50.990;6.962;2023-11-22T01:43:56;102293.09;;;6.47;100.00
49979;BME280;35869;50.990;6.962;2023-11-22T01:48:57;102303.44;;;6.48;100.00
49979;BME280;35869;50.990;6.962;2023-11-22T01:53:57;102318.06;;;6.46;100.00
49979;BME280;35869;50.990;6.962;2023-11-22T01:58:58;102317.22;;;6.30;100.00
49979;BME280;35869;50.990;6.962;2023-11-22T02:03:58;102324.13;;;6.34;100.00
49979;BME280;35869;50.990;6.962;2023-11-22T02:08:58;102337.88;;;6.38;100.00
49979;BME280;35869;50.990;6.962;2023-11-22T02:13:59;102340.47;;;6.26;100.00
49979;BME280;35869;50.990;6.962;2023-11-22T02:18:59;102346.50;;;6.31;100.00
49979;BME280;35869;50.990;6.962;2023-11-22T02:24:00;102365.41;;;6.44;100.00
49979;BME280;35869;50.990;6.962;2023-11-22T02:29:00;102367.16;;;6.41;100.00
49979;BME280;35869;50.990;6.962;2023-11-22T02:34:00;102368.88;;;6.43;100.00
49979;BME280;35869;50.990;6.962;2023-11-22T02:39:01;102355.09;;;6.31;100.00
49979;BME280;35869;50.990;6.962;2023-11-22T02:44:01;102353.38;;;6.39;100.00
49979;BME280;35869;50.990;6.962;2023-11-22T02:49:01;102349.94;;;6.47;100.00
49979;BME280;35869;50.990;6.962;2023-11-22T02:54:02;102345.63;;;6.30;100.00
49979;BME280;35869;50.990;6.962;2023-11-22T02:59:02;102345.63;;;6.27;100.00
49979;BME280;35869;50.990;6.962;2023-11-22T03:04:03;102352.50;;;6.14;100.00
49979;BME280;35869;50.990;6.962;2023-11-22T03:09:03;102360.28;;;6.22;100.00
49979;BME280;35869;50.990;6.962;2023-11-22T03:14:03;102362.84;;;6.05;100.00
49979;BME280;35869;50.990;6.962;2023-11-22T03:19:03;102361.13;;;6.20;100.00
49979;BME280;35869;50.990;6.962;2023-11-22T03:24:04;102379.19;;;6.24;100.00
49979;BME280;35869;50.990;6.962;2023-11-22T03:29:04;102386.06;;;6.25;100.00
49979;BME280;35869;50.990;6.962;2023-11-22T03:34:04;102406.75;;;6.22;100.00
49979;BME280;35869;50.990;6.962;2023-11-22T03:39:05;102406.75;;;6.22;100.00
49979;BME280;35869;50.990;6.962;2023-11-22T03:44:05;102417.06;;;6.19;100.00
49979;BME280;35869;50.990;6.962;2023-11-22T03:49:06;102410.16;;;6.20;100.00
49979;BME280;35869;50.990;6.962;2023-11-22T03:54:06;102417.06;;;6.13;100.00
49979;BME280;35869;50.990;6.962;2023-11-22T03:59:06;102422.22;;;6.07;100.00
49979;BME280;35869;50.990;6.962;2023-11-22T04:04:07;102424.78;;;6.05;100.00
49979;BME280;35869;50.990;6.962;2023-11-22T04:09:07;102429.88;;;5.90;100.00
49979;BME280;35869;50.990;6.962;2023-11-22T04:14:07;102441.91;;;5.89;100.00
49979;BME280;35869;50.990;6.962;2023-11-22T04:19:08;102448.84;;;5.97;100.00
49979;BME280;35869;50.990;6.962;2023-11-22T04:24:08;102457.31;;;5.64;100.00
49979;BME280;35869;50.990;6.962;2023-11-22T04:29:08;102471.97;;;5.78;100.00
49979;BME280;35869;50.990;6.962;2023-11-22T04:34:09;102480.59;;;5.80;100.00
49979;BME280;35869;50.990;6.962;2023-11-22T04:39:09;102499.44;;;5.67;100.00
49979;BME280;35869;50.990;6.962;2023-11-22T04:44:09;102493.44;;;5.67;100.00
49979;BME280;35869;50.990;6.962;2023-11-22T04:49:09;102483.09;;;5.59;100.00
49979;BME280;35869;50.990;6.962;2023-11-22T04:54:10;102474.47;;;5.57;100.00
49979;BME280;35869;50.990;6.962;2023-11-22T04:59:10;102477.03;;;5.52;100.00
49979;BME280;35869;50.990;6.962;2023-11-22T05:04:10;102482.94;;;5.31;100.00
49979;BME280;35869;50.990;6.962;2023-11-22T05:09:10;102473.59;;;5.52;100.00
49979;BME280;35869;50.990;6.962;2023-11-22T05:14:11;102480.47;;;5.47;100.00
49979;BME280;35869;50.990;6.962;2023-11-22T05:19:11;102493.28;;;5.39;100.00
49979;BME280;35869;50.990;6.962;2023-11-22T05:24:11;102496.75;;;5.40;100.00
49979;BME280;35869;50.990;6.962;2023-11-22T05:29:12;102502.63;;;5.17;100.00
49979;BME280;35869;50.990;6.962;2023-11-22T05:34:12;102522.34;;;5.15;100.00
49979;BME280;35869;50.990;6.962;2023-11-22T05:39:12;102526.69;;;5.21;100.00
49979;BME280;35869;50.990;6.962;2023-11-22T05:44:13;102539.66;;;5.31;100.00
49979;BME280;35869;50.990;6.962;2023-11-22T05:49:13;102544.81;;;5.28;100.00
49979;BME280;35869;50.990;6.962;2023-11-22T05:54:13;102555.00;;;5.13;100.00
49979;BME280;35869;50.990;6.962;2023-11-22T05:59:13;102552.47;;;5.21;100.00
49979;BME280;35869;50.990;6.962;2023-11-22T06:04:13;102566.91;;;4.99;100.00
49979;BME280;35869;50.990;6.962;2023-11-22T06:09:14;102560.97;;;5.09;100.00
49979;BME280;35869;50.990;6.962;2023-11-22T06:14:14;102565.31;;;5.13;100.00
49979;BME280;35869;50.990;6.962;2023-11-22T06:19:14;102552.31;;;5.02;100.00
49979;BME280;35869;50.990;6.962;2023-11-22T06:24:14;102556.66;;;5.08;100.00
49979;BME280;35869;50.990;6.962;2023-11-22T06:29:15;102550.63;;;5.03;100.00
49979;BME280;35869;50.990;6.962;2023-11-22T06:34:15;102570.25;;;4.90;100.00
49979;BME280;35869;50.990;6.962;2023-11-22T06:39:17;102562.44;;;4.78;100.00
49979;BME280;35869;50.990;6.962;2023-11-22T06:44:18;102570.16;;;4.75;100.00
49979;BME280;35869;50.990;6.962;2023-11-22T06:49:18;102576.13;;;4.72;100.00
49979;BME280;35869;50.990;6.962;2023-11-22T06:54:19;102589.78;;;4.65;100.00
49979;BME280;35869;50.990;6.962;2023-11-22T06:59:20;102591.50;;;4.63;100.00
49979;BME280;35869;50.990;6.962;2023-11-22T07:04:20;102599.91;;;4.50;100.00
49979;BME280;35869;50.990;6.962;2023-11-22T07:09:20;102592.16;;;4.47;100.00
49979;BME280;35869;50.990;6.962;2023-11-22T07:14:20;102599.88;;;4.47;100.00
49979;BME280;35869;50.990;6.962;2023-11-22T07:19:21;102606.56;;;4.31;100.00
49979;BME280;35869;50.990;6.962;2023-11-22T07:24:21;102604.84;;;4.30;100.00
49979;BME280;35869;50.990;6.962;2023-11-22T07:29:21;102618.44;;;4.18;100.00
49979;BME280;35869;50.990;6.962;2023-11-22T07:34:22;102629.56;;;4.17;100.00
49979;BME280;35869;50.990;6.962;2023-11-22T07:39:22;102645.03;;;4.20;100.00
49979;BME280;35869;50.990;6.962;2023-11-22T07:44:23;102672.41;;;4.14;100.00
49979;BME280;35869;50.990;6.962;2023-11-22T07:49:23;102684.38;;;4.12;100.00
49979;BME280;35869;50.990;6.962;2023-11-22T07:54:23;102689.47;;;4.09;100.00
49979;BME280;35869;50.990;6.962;2023-11-22T07:59:25;102687.00;;;4.15;100.00
49979;BME280;35869;50.990;6.962;2023-11-22T08:04:25;102668.81;;;4.04;100.00
49979;BME280;35869;50.990;6.962;2023-11-22T08:09:25;102660.31;;;4.10;100.00
49979;BME280;35869;50.990;6.962;2023-11-22T08:14:25;102648.16;;;3.98;100.00
49979;BME280;35869;50.990;6.962;2023-11-22T08:19:26;102633.63;;;4.00;100.00
49979;BME280;35869;50.990;6.962;2023-11-22T08:24:26;102631.00;;;3.97;100.00
49979;BME280;35869;50.990;6.962;2023-11-22T08:29:29;102625.00;;;3.98;100.00
49979;BME280;35869;50.990;6.962;2023-11-22T08:34:30;102625.81;;;3.94;100.00
49979;BME280;35869;50.990;6.962;2023-11-22T08:39:30;102622.44;;;3.98;100.00
49979;BME280;35869;50.990;6.962;2023-11-22T08:44:30;102640.41;;;3.95;100.00
49979;BME280;35869;50.990;6.962;2023-11-22T08:49:31;102664.31;;;3.88;100.00
49979;BME280;35869;50.990;6.962;2023-11-22T08:54:31;102672.06;;;3.89;100.00
49979;BME280;35869;50.990;6.962;2023-11-22T08:59:31;102693.50;;;3.90;100.00
49979;BME280;35869;50.990;6.962;2023-11-22T09:04:32;102718.88;;;3.68;100.00
49979;BME280;35869;50.990;6.962;2023-11-22T09:09:33;102731.06;;;3.80;100.00
49979;BME280;35869;50.990;6.962;2023-11-22T09:14:33;102727.41;;;3.66;100.00
49979;BME280;35869;50.990;6.962;2023-11-22T09:19:33;102712.13;;;3.75;100.00
49979;BME280;35869;50.990;6.962;2023-11-22T09:24:39;102711.09;;;3.64;100.00
49979;BME280;35869;50.990;6.962;2023-11-22T09:29:41;102706.97;;;3.73;100.00
49979;BME280;35869;50.990;6.962;2023-11-22T09:34:46;102707.78;;;3.71;100.00
49979;BME280;35869;50.990;6.962;2023-11-22T09:39:46;102705.22;;;3.72;100.00
49979;BME280;35869;50.990;6.962;2023-11-22T09:44:46;102707.91;;;3.80;100.00
49979;BME280;35869;50.990;6.962;2023-11-22T09:49:49;102689.97;;;3.83;100.00
49979;BME280;35869;50.990;6.962;2023-11-22T09:54:52;102682.28;;;3.86;100.00
49979;BME280;35869;50.990;6.962;2023-11-22T09:59:54;102686.72;;;3.95;100.00
49979;BME280;35869;50.990;6.962;2023-11-22T10:04:57;102690.22;;;4.00;100.00
49979;BME280;35869;50.990;6.962;2023-11-22T10:09:57;102691.94;;;4.01;100.00
49979;BME280;35869;50.990;6.962;2023-11-22T10:15:13;102673.22;;;4.11;100.00
49979;BME280;35869;50.990;6.962;2023-11-22T10:20:14;102673.31;;;4.17;100.00
49979;BME280;35869;50.990;6.962;2023-11-22T10:25:15;102678.47;;;4.19;100.00
49979;BME280;35869;50.990;6.962;2023-11-22T10:30:15;102676.84;;;4.24;100.00
49979;BME280;35869;50.990;6.962;2023-11-22T10:35:15;102682.06;;;4.30;100.00
49979;BME280;35869;50.990;6.962;2023-11-22T10:40:16;102681.28;;;4.37;100.00
49979;BME280;35869;50.990;6.962;2023-11-22T10:45:16;102690.94;;;4.52;100.00
49979;BME280;35869;50.990;6.962;2023-11-22T10:50:18;102694.41;;;4.57;100.00
49979;BME280;35869;50.990;6.962;2023-11-22T10:55:19;102702.25;;;4.66;100.00
49979;BME280;35869;50.990;6.962;2023-11-22T11:00:20;102703.19;;;4.74;100.00
49979;BME280;35869;50.990;6.962;2023-11-22T11:05:24;102703.31;;;4.84;100.00
49979;BME280;35869;50.990;6.962;2023-11-22T11:10:28;102718.66;;;4.74;100.00
49979;BME280;35869;50.990;6.962;2023-11-22T11:15:29;102717.00;;;4.79;100.00
49979;BME280;35869;50.990;6.962;2023-11-22T11:20:56;102704.25;;;4.90;100.00
49979;BME280;35869;50.990;6.962;2023-11-22T11:25:57;102701.66;;;4.92;100.00
49979;BME280;35869;50.990;6.962;2023-11-22T11:30:58;102694.06;;;5.04;100.00
49979;BME280;35869;50.990;6.962;2023-11-22T11:36:01;102681.38;;;5.22;100.00
49979;BME280;35869;50.990;6.962;2023-11-22T11:41:11;102677.97;;;5.23;100.00
49979;BME280;35869;50.990;6.962;2023-11-22T11:46:13;102660.78;;;5.25;100.00
49979;BME280;35869;50.990;6.962;2023-11-22T11:51:18;102664.22;;;5.23;100.00
49979;BME280;35869;50.990;6.962;2023-11-22T11:56:18;102654.88;;;5.37;100.00
49979;BME280;35869;50.990;6.962;2023-11-22T12:01:19;102660.91;;;5.41;100.00
49979;BME280;35869;50.990;6.962;2023-11-22T12:06:21;102678.97;;;5.44;100.00
49979;BME280;35869;50.990;6.962;2023-11-22T12:11:30;102666.22;;;5.59;100.00
49979;BME280;35869;50.990;6.962;2023-11-22T12:16:33;102656.69;;;5.49;100.00
49979;BME280;35869;50.990;6.962;2023-11-22T12:21:33;102625.03;;;5.71;100.00
49979;BME280;35869;50.990;6.962;2023-11-22T12:26:34;102608.69;;;5.71;100.00
49979;BME280;35869;50.990;6.962;2023-11-22T12:31:34;102580.28;;;5.66;100.00
49979;BME280;35869;50.990;6.962;2023-11-22T12:36:35;102558.78;;;5.66;100.00
49979;BME280;35869;50.990;6.962;2023-11-22T12:41:35;102545.03;;;5.68;100.00
49979;BME280;35869;50.990;6.962;2023-11-22T12:46:46;102542.44;;;5.65;100.00
49979;BME280;35869;50.990;6.962;2023-11-22T12:51:49;102538.94;;;5.55;100.00
49979;BME280;35869;50.990;6.962;2023-11-22T12:56:50;102523.44;;;5.51;100.00
49979;BME280;35869;50.990;6.962;2023-11-22T13:01:50;102541.56;;;5.61;100.00
49979;BME280;35869;50.990;6.962;2023-11-22T13:06:51;102544.19;;;5.69;100.00
49979;BME280;35869;50.990;6.962;2023-11-22T13:11:51;102526.97;;;5.68;100.00
49979;BME280;35869;50.990;6.962;2023-11-22T13:16:52;102525.28;;;5.73;100.00
49979;BME280;35869;50.990;6.962;2023-11-22T13:21:52;102522.72;;;5.75;100.00
49979;BME280;35869;50.990;6.962;2023-11-22T13:26:52;102527.00;;;5.73;100.00
49979;BME280;35869;50.990;6.962;2023-11-22T13:31:53;102533.00;;;5.73;100.00
49979;BME280;35869;50.990;6.962;2023-11-22T13:36:53;102553.72;;;5.81;100.00
49979;BME280;35869;50.990;6.962;2023-11-22T13:41:53;102528.78;;;5.83;100.00
49979;BME280;35869;50.990;6.962;2023-11-22T13:46:53;102533.06;;;5.81;100.00
49979;BME280;35869;50.990;6.962;2023-11-22T13:51:54;102548.53;;;5.76;100.00
49979;BME280;35869;50.990;6.962;2023-11-22T13:56:54;102553.78;;;5.92;100.00
49979;BME280;35869;50.990;6.962;2023-11-22T14:01:54;102550.25;;;5.77;100.00
49979;BME280;35869;50.990;6.962;2023-11-22T14:06:54;102555.41;;;5.79;100.00
49979;BME280;35869;50.990;6.962;2023-11-22T14:11:54;102564.94;;;5.91;100.00
49979;BME280;35869;50.990;6.962;2023-11-22T14:16:55;102562.34;;;5.91;100.00
49979;BME280;35869;50.990;6.962;2023-11-22T14:21:55;102566.66;;;5.90;100.00
49979;BME280;35869;50.990;6.962;2023-11-22T14:26:55;102566.59;;;5.79;100.00
49979;BME280;35869;50.990;6.962;2023-11-22T14:31:56;102560.69;;;5.93;100.00
49979;BME280;35869;50.990;6.962;2023-11-22T14:36:56;102564.91;;;5.83;100.00
49979;BME280;35869;50.990;6.962;2023-11-22T14:41:56;102566.63;;;5.84;100.00
49979;BME280;35869;50.990;6.962;2023-11-22T14:46:57;102556.31;;;5.88;100.00
49979;BME280;35869;50.990;6.962;2023-11-22T14:51:57;102554.56;;;5.81;100.00
49979;BME280;35869;50.990;6.962;2023-11-22T14:56:57;102566.63;;;5.82;100.00
49979;BME280;35869;50.990;6.962;2023-11-22T15:01:58;102580.34;;;5.75;100.00
49979;BME280;35869;50.990;6.962;2023-11-22T15:06:58;102589.75;;;5.67;100.00
49979;BME280;35869;50.990;6.962;2023-11-22T15:12:02;102590.66;;;5.78;100.00
49979;BME280;35869;50.990;6.962;2023-11-22T15:17:02;102594.06;;;5.73;100.00
49979;BME280;35869;50.990;6.962;2023-11-22T15:22:02;102582.88;;;5.69;100.00
49979;BME280;35869;50.990;6.962;2023-11-22T15:27:03;102590.59;;;5.63;100.00
49979;BME280;35869;50.990;6.962;2023-11-22T15:32:03;102590.59;;;5.68;100.00
49979;BME280;35869;50.990;6.962;2023-11-22T15:37:04;102578.56;;;5.65;100.00
49979;BME280;35869;50.990;6.962;2023-11-22T15:42:04;102587.13;;;5.61;100.00
49979;BME280;35869;50.990;6.962;2023-11-22T15:47:04;102593.19;;;5.65;100.00
49979;BME280;35869;50.990;6.962;2023-11-22T15:52:05;102606.94;;;5.65;100.00
49979;BME280;35869;50.990;6.962;2023-11-22T15:57:12;102614.72;;;5.71;100.00
49979;BME280;35869;50.990;6.962;2023-11-22T16:02:12;102600.06;;;5.69;100.00
49979;BME280;35869;50.990;6.962;2023-11-22T16:07:12;102602.63;;;5.69;100.00
49979;BME280;35869;50.990;6.962;2023-11-22T16:12:12;102601.78;;;5.67;100.00
49979;BME280;35869;50.990;6.962;2023-11-22T16:17:13;102597.44;;;5.59;100.00
49979;BME280;35869;50.990;6.962;2023-11-22T16:22:13;102573.38;;;5.60;100.00
49979;BME280;35869;50.990;6.962;2023-11-22T16:27:14;102556.16;;;5.58;100.00
49979;BME280;35869;50.990;6.962;2023-11-22T16:32:14;102552.69;;;5.56;100.00
49979;BME280;35869;50.990;6.962;2023-11-22T16:37:14;102544.97;;;5.54;100.00
49979;BME280;35869;50.990;6.962;2023-11-22T16:42:14;102532.03;;;5.50;100.00
49979;BME280;35869;50.990;6.962;2023-11-22T16:47:15;102559.53;;;5.48;100.00
49979;BME280;35869;50.990;6.962;2023-11-22T16:52:15;102569.00;;;5.49;100.00
49979;BME280;35869;50.990;6.962;2023-11-22T16:57:15;102556.97;;;5.51;100.00
49979;BME280;35869;50.990;6.962;2023-11-22T17:02:16;102574.09;;;5.40;100.00
49979;BME280;35869;50.990;6.962;2023-11-22T17:07:16;102574.97;;;5.45;100.00
49979;BME280;35869;50.990;6.962;2023-11-22T17:12:16;102561.22;;;5.40;100.00
49979;BME280;35869;50.990;6.962;2023-11-22T17:17:17;102565.47;;;5.39;100.00
49979;BME280;35869;50.990;6.962;2023-11-22T17:22:17;102558.63;;;5.40;100.00
49979;BME280;35869;50.990;6.962;2023-11-22T17:27:18;102547.44;;;5.38;100.00
49979;BME280;35869;50.990;6.962;2023-11-22T17:32:22;102550.81;;;5.32;100.00
49979;BME280;35869;50.990;6.962;2023-11-22T17:37:26;102535.41;;;5.37;100.00
49979;BME280;35869;50.990;6.962;2023-11-22T17:42:26;102531.06;;;5.31;100.00
49979;BME280;35869;50.990;6.962;2023-11-22T17:47:26;102506.13;;;5.33;100.00
49979;BME280;35869;50.990;6.962;2023-11-22T17:52:26;102493.28;;;5.39;100.00
49979;BME280;35869;50.990;6.962;2023-11-22T17:57:27;102488.09;;;5.33;100.00
49979;BME280;35869;50.990;6.962;2023-11-22T18:02:27;102500.16;;;5.39;100.00
49979;BME280;35869;50.990;6.962;2023-11-22T18:07:27;102494.19;;;5.40;100.00
49979;BME280;35869;50.990;6.962;2023-11-22T18:12:29;102500.13;;;5.32;100.00
49979;BME280;35869;50.990;6.962;2023-11-22T18:17:29;102510.47;;;5.37;100.00
49979;BME280;35869;50.990;6.962;2023-11-22T18:22:29;102507.94;;;5.42;100.00
49979;BME280;35869;50.990;6.962;2023-11-22T18:27:29;102503.56;;;5.33;100.00
49979;BME280;35869;50.990;6.962;2023-11-22T18:32:30;102504.47;;;5.37;100.00
49979;BME280;35869;50.990;6.962;2023-11-22T18:37:30;102497.59;;;5.35;100.00
49979;BME280;35869;50.990;6.962;2023-11-22T18:42:30;102503.56;;;5.28;100.00
49979;BME280;35869;50.990;6.962;2023-11-22T18:47:30;102500.16;;;5.37;100.00
49979;BME280;35869;50.990;6.962;2023-11-22T18:52:31;102507.84;;;5.29;100.00
49979;BME280;35869;50.990;6.962;2023-11-22T18:57:31;102499.25;;;5.30;100.00
49979;BME280;35869;50.990;6.962;2023-11-22T19:02:32;102497.59;;;5.35;100.00
49979;BME280;35869;50.990;6.962;2023-11-22T19:07:33;102480.34;;;5.28;100.00
49979;BME280;35869;50.990;6.962;2023-11-22T19:12:33;102468.31;;;5.30;100.00
49979;BME280;35869;50.990;6.962;2023-11-22T19:17:33;102475.19;;;5.28;100.00
49979;BME280;35869;50.990;6.962;2023-11-22T19:22:33;102470.03;;;5.28;100.00
49979;BME280;35869;50.990;6.962;2023-11-22T19:27:34;102483.75;;;5.24;100.00
49979;BME280;35869;50.990;6.962;2023-11-22T19:32:34;102483.72;;;5.17;100.00
49979;BME280;35869;50.990;6.962;2023-11-22T19:37:34;102489.75;;;5.20;100.00
49979;BME280;35869;50.990;6.962;2023-11-22T19:42:35;102482.88;;;5.21;100.00
49979;BME280;35869;50.990;6.962;2023-11-22T19:47:35;102476.84;;;5.17;100.00
49979;BME280;35869;50.990;6.962;2023-11-22T19:52:36;102483.72;;;5.18;100.00
49979;BME280;35869;50.990;6.962;2023-11-22T19:57:36;102478.56;;;5.21;100.00
49979;BME280;35869;50.990;6.962;2023-11-22T20:02:36;102476.88;;;5.23;100.00
49979;BME280;35869;50.990;6.962;2023-11-22T20:07:37;102476.81;;;5.16;100.00
49979;BME280;35869;50.990;6.962;2023-11-22T20:12:37;102481.09;;;5.14;100.00
49979;BME280;35869;50.990;6.962;2023-11-22T20:17:37;102472.53;;;5.10;100.00
49979;BME280;35869;50.990;6.962;2023-11-22T20:22:37;102469.97;;;5.16;100.00
49979;BME280;35869;50.990;6.962;2023-11-22T20:27:38;102465.66;;;5.11;100.00
49979;BME280;35869;50.990;6.962;2023-11-22T20:32:39;102469.94;;;5.10;100.00
49979;BME280;35869;50.990;6.962;2023-11-22T20:37:39;102449.31;;;5.13;100.00
49979;BME280;35869;50.990;6.962;2023-11-22T20:42:39;102434.69;;;5.09;100.00
49979;BME280;35869;50.990;6.962;2023-11-22T20:47:40;102434.66;;;5.03;100.00
49979;BME280;35869;50.990;6.962;2023-11-22T20:52:40;102440.66;;;5.02;100.00
49979;BME280;35869;50.990;6.962;2023-11-22T20:57:40;102448.44;;;5.06;100.00
49979;BME280;35869;50.990;6.962;2023-11-22T21:02:40;102465.56;;;5.03;100.00
49979;BME280;35869;50.990;6.962;2023-11-22T21:07:41;102457.84;;;5.03;100.00
49979;BME280;35869;50.990;6.962;2023-11-22T21:12:41;102467.28;;;5.02;100.00
49979;BME280;35869;50.990;6.962;2023-11-22T21:17:41;102461.28;;;4.99;100.00
49979;BME280;35869;50.990;6.962;2023-11-22T21:22:41;102437.25;;;5.06;100.00
49979;BME280;35869;50.990;6.962;2023-11-22T21:27:42;102443.28;;;5.08;100.00
49979;BME280;35869;50.990;6.962;2023-11-22T21:32:42;102438.09;;;5.03;100.00
49979;BME280;35869;50.990;6.962;2023-11-22T21:37:42;102429.50;;;5.03;100.00
49979;BME280;35869;50.990;6.962;2023-11-22T21:42:42;102435.53;;;5.08;100.00
49979;BME280;35869;50.990;6.962;2023-11-22T21:47:43;102440.69;;;5.08;100.00
49979;BME280;35869;50.990;6.962;2023-11-22T21:52:43;102446.66;;;5.02;100.00
49979;BME280;35869;50.990;6.962;2023-11-22T21:57:43;102444.06;;;4.98;100.00
49979;BME280;35869;50.990;6.962;2023-11-22T22:02:43;102437.22;;;5.03;100.00
49979;BME280;35869;50.990;6.962;2023-11-22T22:07:44;102433.78;;;5.04;100.00
49979;BME280;35869;50.990;6.962;2023-11-22T22:12:44;102427.81;;;5.08;100.00
49979;BME280;35869;50.990;6.962;2023-11-22T22:17:44;102437.25;;;5.07;100.00
49979;BME280;35869;50.990;6.962;2023-11-22T22:22:44;102417.47;;;5.00;100.00
49979;BME280;35869;50.990;6.962;2023-11-22T22:27:45;102402.03;;;5.06;100.00
49979;BME280;35869;50.990;6.962;2023-11-22T22:32:45;102390.00;;;5.07;100.00
49979;BME280;35869;50.990;6.962;2023-11-22T22:37:45;102372.84;;;5.06;100.00
49979;BME280;35869;50.990;6.962;2023-11-22T22:42:46;102371.09;;;5.03;100.00
49979;BME280;35869;50.990;6.962;2023-11-22T22:47:46;102354.75;;;5.03;100.00
49979;BME280;35869;50.990;6.962;2023-11-22T22:52:46;102356.47;;;5.04;100.00
49979;BME280;35869;50.990;6.962;2023-11-22T22:57:46;102350.44;;;4.96;100.00
49979;BME280;35869;50.990;6.962;2023-11-22T23:02:47;102340.13;;;4.96;100.00
49979;BME280;35869;50.990;6.962;2023-11-22T23:07:47;102338.38;;;4.92;100.00
49979;BME280;35869;50.990;6.962;2023-11-22T23:12:47;102343.50;;;4.81;100.00
49979;BME280;35869;50.990;6.962;2023-11-22T23:17:47;102340.06;;;4.82;100.00
49979;BME280;35869;50.990;6.962;2023-11-22T23:22:48;102336.63;;;4.81;100.00
49979;BME280;35869;50.990;6.962;2023-11-22T23:27:48;102337.44;;;4.74;100.00
49979;BME280;35869;50.990;6.962;2023-11-22T23:32:49;102332.31;;;4.77;100.00
49979;BME280;35869;50.990;6.962;2023-11-22T23:37:49;102324.59;;;4.79;100.00
49979;BME280;35869;50.990;6.962;2023-11-22T23:42:49;102324.59;;;4.79;100.00
49979;BME280;35869;50.990;6.962;2023-11-22T23:47:49;102310.00;;;4.79;100.00
49979;BME280;35869;50.990;6.962;2023-11-22T23:52:50;102301.44;;;4.84;100.00
49979;BME280;35869;50.990;6.962;2023-11-22T23:57:50;102286.84;;;4.81;100.00
